sensor_id;sensor_type;location;lat;lon;timestamp;pressure;altitude;pressure_sealevel;temperature;humidity
40730;BME280;26418;50.070;8.436;2023-05-27T00:01:28;100953.69;;;13.99;49.01
40730;BME280;26418;50.070;8.436;2023-05-27T00:04:06;100942.97;;;13.89;49.14
40730;BME280;26418;50.070;8.436;2023-05-27T00:06:37;100947.00;;;13.92;49.64
40730;BME280;26418;50.070;8.436;2023-05-27T00:09:03;100943.50;;;13.91;49.20
40730;BME280;26418;50.070;8.436;2023-05-27T00:11:29;100948.06;;;13.96;49.24
40730;BME280;26418;50.070;8.436;2023-05-27T00:13:55;100949.16;;;13.95;49.45
40730;BME280;26418;50.070;8.436;2023-05-27T00:16:20;100947.31;;;13.90;49.39
40730;BME280;26418;50.070;8.436;2023-05-27T00:18:46;100955.53;;;13.85;49.78
40730;BME280;26418;50.070;8.436;2023-05-27T00:21:13;100948.59;;;13.79;49.78
40730;BME280;26418;50.070;8.436;2023-05-27T00:23:39;100952.41;;;13.78;49.94
40730;BME280;26418;50.070;8.436;2023-05-27T00:26:05;100951.59;;;13.77;49.61
40730;BME280;26418;50.070;8.436;2023-05-27T00:28:30;100946.47;;;13.76;49.84
40730;BME280;26418;50.070;8.436;2023-05-27T00:30:57;100941.09;;;13.71;49.67
40730;BME280;26418;50.070;8.436;2023-05-27T00:33:24;100947.63;;;13.70;49.86
40730;BME280;26418;50.070;8.436;2023-05-27T00:35:49;100939.78;;;13.68;49.76
40730;BME280;26418;50.070;8.436;2023-05-27T00:38:15;100947.16;;;13.67;49.79
40730;BME280;26418;50.070;8.436;2023-05-27T00:40:41;100947.16;;;13.67;50.07
40730;BME280;26418;50.070;8.436;2023-05-27T00:43:06;100941.09;;;13.71;49.88
40730;BME280;26418;50.070;8.436;2023-05-27T00:45:32;100945.13;;;13.73;49.47
40730;BME280;26418;50.070;8.436;2023-05-27T00:47:58;100945.22;;;13.68;49.60
40730;BME280;26418;50.070;8.436;2023-05-27T00:50:27;100933.63;;;13.62;49.65
40730;BME280;26418;50.070;8.436;2023-05-27T00:52:53;100945.59;;;13.61;49.89
40730;BME280;26418;50.070;8.436;2023-05-27T00:55:23;100945.09;;;13.59;49.94
40730;BME280;26418;50.070;8.436;2023-05-27T00:57:48;100949.81;;;13.54;49.87
40730;BME280;26418;50.070;8.436;2023-05-27T01:00:14;100960.38;;;13.55;50.18
40730;BME280;26418;50.070;8.436;2023-05-27T01:02:40;100953.03;;;13.56;50.03
40730;BME280;26418;50.070;8.436;2023-05-27T01:05:08;100942.44;;;13.54;50.04
40730;BME280;26418;50.070;8.436;2023-05-27T01:07:47;100946.13;;;13.63;49.70
40730;BME280;26418;50.070;8.436;2023-05-27T01:10:42;100958.38;;;13.61;49.59
40730;BME280;26418;50.070;8.436;2023-05-27T01:13:40;100947.81;;;13.59;49.66
40730;BME280;26418;50.070;8.436;2023-05-27T01:16:11;100946.47;;;13.57;50.04
40730;BME280;26418;50.070;8.436;2023-05-27T01:18:37;100941.72;;;13.48;50.00
40730;BME280;26418;50.070;8.436;2023-05-27T01:21:07;100943.63;;;13.48;50.18
40730;BME280;26418;50.070;8.436;2023-05-27T01:23:35;100940.47;;;13.41;50.00
40730;BME280;26418;50.070;8.436;2023-05-27T01:26:04;100945.53;;;13.47;50.22
40730;BME280;26418;50.070;8.436;2023-05-27T01:28:30;100942.22;;;13.50;50.01
40730;BME280;26418;50.070;8.436;2023-05-27T01:31:12;100929.59;;;13.41;50.13
40730;BME280;26418;50.070;8.436;2023-05-27T01:33:40;100937.16;;;13.44;50.13
40730;BME280;26418;50.070;8.436;2023-05-27T01:36:12;100940.38;;;13.46;49.92
40730;BME280;26418;50.070;8.436;2023-05-27T01:38:40;100938.56;;;13.41;49.85
40730;BME280;26418;50.070;8.436;2023-05-27T01:41:09;100944.28;;;13.40;49.96
40730;BME280;26418;50.070;8.436;2023-05-27T01:43:37;100928.41;;;13.28;50.31
40730;BME280;26418;50.070;8.436;2023-05-27T01:46:03;100949.78;;;13.34;50.35
40730;BME280;26418;50.070;8.436;2023-05-27T01:48:29;100936.84;;;13.26;50.35
40730;BME280;26418;50.070;8.436;2023-05-27T01:50:54;100923.69;;;13.14;50.62
40730;BME280;26418;50.070;8.436;2023-05-27T01:53:20;100938.38;;;13.13;50.69
40730;BME280;26418;50.070;8.436;2023-05-27T01:55:45;100930.81;;;13.10;50.92
40730;BME280;26418;50.070;8.436;2023-05-27T01:58:11;100930.28;;;13.08;51.09
40730;BME280;26418;50.070;8.436;2023-05-27T02:00:36;100938.66;;;13.12;51.24
40730;BME280;26418;50.070;8.436;2023-05-27T02:03:02;100935.38;;;13.15;50.89
40730;BME280;26418;50.070;8.436;2023-05-27T02:05:28;100927.28;;;13.10;50.98
40730;BME280;26418;50.070;8.436;2023-05-27T02:07:53;100933.31;;;13.07;51.28
40730;BME280;26418;50.070;8.436;2023-05-27T02:10:19;100930.91;;;13.05;51.26
40730;BME280;26418;50.070;8.436;2023-05-27T02:12:44;100927.56;;;13.08;51.22
40730;BME280;26418;50.070;8.436;2023-05-27T02:15:10;100925.69;;;13.09;51.23
40730;BME280;26418;50.070;8.436;2023-05-27T02:17:36;100918.97;;;13.01;51.02
40730;BME280;26418;50.070;8.436;2023-05-27T02:20:03;100903.34;;;12.93;51.28
40730;BME280;26418;50.070;8.436;2023-05-27T02:22:29;100920.91;;;13.00;51.16
40730;BME280;26418;50.070;8.436;2023-05-27T02:24:55;100905.31;;;12.87;51.13
40730;BME280;26418;50.070;8.436;2023-05-27T02:27:20;100916.69;;;12.89;51.27
40730;BME280;26418;50.070;8.436;2023-05-27T02:29:46;100918.66;;;12.83;51.39
40730;BME280;26418;50.070;8.436;2023-05-27T02:32:12;100916.78;;;12.84;51.83
40730;BME280;26418;50.070;8.436;2023-05-27T02:34:37;100913.81;;;12.80;51.84
40730;BME280;26418;50.070;8.436;2023-05-27T02:37:04;100913.56;;;12.77;51.95
40730;BME280;26418;50.070;8.436;2023-05-27T02:39:30;100911.72;;;12.72;52.15
40730;BME280;26418;50.070;8.436;2023-05-27T02:41:55;100907.44;;;12.71;52.00
40730;BME280;26418;50.070;8.436;2023-05-27T02:44:21;100903.25;;;12.79;52.08
40730;BME280;26418;50.070;8.436;2023-05-27T02:46:46;100905.16;;;12.78;51.79
40730;BME280;26418;50.070;8.436;2023-05-27T02:49:12;100896.84;;;12.69;52.22
40730;BME280;26418;50.070;8.436;2023-05-27T02:51:37;100897.78;;;12.60;52.33
40730;BME280;26418;50.070;8.436;2023-05-27T02:54:03;100900.50;;;12.60;52.81
40730;BME280;26418;50.070;8.436;2023-05-27T02:56:29;100886.75;;;12.51;52.72
40730;BME280;26418;50.070;8.436;2023-05-27T02:58:54;100885.50;;;12.43;52.83
40730;BME280;26418;50.070;8.436;2023-05-27T03:01:20;100905.50;;;12.47;52.77
40730;BME280;26418;50.070;8.436;2023-05-27T03:03:46;100885.59;;;12.33;53.15
40730;BME280;26418;50.070;8.436;2023-05-27T03:06:12;100901.00;;;12.37;53.47
40730;BME280;26418;50.070;8.436;2023-05-27T03:08:37;100903.25;;;12.30;53.22
40730;BME280;26418;50.070;8.436;2023-05-27T03:11:03;100894.03;;;12.31;53.67
40730;BME280;26418;50.070;8.436;2023-05-27T03:13:28;100887.84;;;12.25;53.58
40730;BME280;26418;50.070;8.436;2023-05-27T03:15:54;100893.50;;;12.29;53.74
40730;BME280;26418;50.070;8.436;2023-05-27T03:18:20;100891.09;;;12.27;53.91
40730;BME280;26418;50.070;8.436;2023-05-27T03:20:46;100896.63;;;12.17;53.98
40730;BME280;26418;50.070;8.436;2023-05-27T03:23:12;100901.03;;;12.08;54.14
40730;BME280;26418;50.070;8.436;2023-05-27T03:25:38;100895.38;;;12.04;54.83
40730;BME280;26418;50.070;8.436;2023-05-27T03:28:03;100901.38;;;12.01;54.73
40730;BME280;26418;50.070;8.436;2023-05-27T03:30:29;100889.78;;;11.90;54.84
40730;BME280;26418;50.070;8.436;2023-05-27T03:32:56;100894.94;;;11.92;55.37
40730;BME280;26418;50.070;8.436;2023-05-27T03:35:21;100895.72;;;11.98;55.29
40730;BME280;26418;50.070;8.436;2023-05-27T03:37:47;100888.41;;;11.93;55.52
40730;BME280;26418;50.070;8.436;2023-05-27T03:40:12;100887.66;;;11.87;55.77
40730;BME280;26418;50.070;8.436;2023-05-27T03:42:38;100887.38;;;11.89;56.13
40730;BME280;26418;50.070;8.436;2023-05-27T03:45:04;100881.88;;;11.94;55.96
40730;BME280;26418;50.070;8.436;2023-05-27T03:47:29;100885.47;;;11.89;55.84
40730;BME280;26418;50.070;8.436;2023-05-27T03:49:55;100881.97;;;11.84;56.19
40730;BME280;26418;50.070;8.436;2023-05-27T03:52:21;100887.97;;;11.80;56.38
40730;BME280;26418;50.070;8.436;2023-05-27T03:54:46;100895.03;;;11.82;56.52
40730;BME280;26418;50.070;8.436;2023-05-27T03:57:12;100892.09;;;11.78;56.76
40730;BME280;26418;50.070;8.436;2023-05-27T03:59:37;100888.78;;;11.81;56.83
40730;BME280;26418;50.070;8.436;2023-05-27T04:02:03;100896.03;;;11.91;56.55
40730;BME280;26418;50.070;8.436;2023-05-27T04:04:29;100901.72;;;11.89;56.72
40730;BME280;26418;50.070;8.436;2023-05-27T04:06:55;100896.88;;;11.86;56.88
40730;BME280;26418;50.070;8.436;2023-05-27T04:09:21;100893.94;;;11.83;56.86
40730;BME280;26418;50.070;8.436;2023-05-27T04:11:46;100887.94;;;11.86;56.82
40730;BME280;26418;50.070;8.436;2023-05-27T04:14:12;100882.25;;;11.87;56.93
40730;BME280;26418;50.070;8.436;2023-05-27T04:16:37;100891.66;;;11.95;56.48
40730;BME280;26418;50.070;8.436;2023-05-27T04:19:06;100894.06;;;11.96;56.81
40730;BME280;26418;50.070;8.436;2023-05-27T04:21:32;100891.13;;;11.93;56.51
40730;BME280;26418;50.070;8.436;2023-05-27T04:23:58;100891.13;;;11.98;56.47
40730;BME280;26418;50.070;8.436;2023-05-27T04:26:24;100890.03;;;11.99;56.73
40730;BME280;26418;50.070;8.436;2023-05-27T04:28:49;100893.47;;;12.05;56.39
40730;BME280;26418;50.070;8.436;2023-05-27T04:31:15;100879.91;;;12.05;56.40
40730;BME280;26418;50.070;8.436;2023-05-27T04:33:41;100902.09;;;12.12;56.08
40730;BME280;26418;50.070;8.436;2023-05-27T04:36:08;100893.16;;;12.11;56.37
40730;BME280;26418;50.070;8.436;2023-05-27T04:38:34;100898.56;;;12.11;56.25
40730;BME280;26418;50.070;8.436;2023-05-27T04:41:00;100902.28;;;12.21;56.04
40730;BME280;26418;50.070;8.436;2023-05-27T04:43:27;100899.00;;;12.24;55.62
40730;BME280;26418;50.070;8.436;2023-05-27T04:45:55;100905.97;;;12.30;55.81
40730;BME280;26418;50.070;8.436;2023-05-27T04:48:22;100903.25;;;12.30;55.29
40730;BME280;26418;50.070;8.436;2023-05-27T04:50:51;100901.88;;;12.33;55.49
40730;BME280;26418;50.070;8.436;2023-05-27T04:53:20;100908.28;;;12.42;55.44
40730;BME280;26418;50.070;8.436;2023-05-27T04:55:45;100910.13;;;12.47;55.50
40730;BME280;26418;50.070;8.436;2023-05-27T04:58:11;100900.56;;;12.54;55.45
40730;BME280;26418;50.070;8.436;2023-05-27T05:00:37;100903.97;;;12.65;54.90
40730;BME280;26418;50.070;8.436;2023-05-27T05:03:22;100907.88;;;12.78;54.22
40730;BME280;26418;50.070;8.436;2023-05-27T05:06:02;100909.66;;;12.88;54.26
40730;BME280;26418;50.070;8.436;2023-05-27T05:08:31;100907.69;;;12.94;53.98
40730;BME280;26418;50.070;8.436;2023-05-27T05:10:57;100909.75;;;13.02;53.60
40730;BME280;26418;50.070;8.436;2023-05-27T05:13:22;100909.09;;;13.10;53.39
40730;BME280;26418;50.070;8.436;2023-05-27T05:15:48;100909.53;;;13.17;53.36
40730;BME280;26418;50.070;8.436;2023-05-27T05:18:13;100885.97;;;13.13;53.42
40730;BME280;26418;50.070;8.436;2023-05-27T05:20:39;100898.66;;;13.36;52.64
40730;BME280;26418;50.070;8.436;2023-05-27T05:23:07;100888.38;;;13.33;52.53
40730;BME280;26418;50.070;8.436;2023-05-27T05:25:33;100904.31;;;13.40;52.77
40730;BME280;26418;50.070;8.436;2023-05-27T05:28:14;100900.25;;;13.43;52.55
40730;BME280;26418;50.070;8.436;2023-05-27T05:30:58;100902.19;;;13.56;52.59
40730;BME280;26418;50.070;8.436;2023-05-27T05:33:24;100904.13;;;13.56;52.50
40730;BME280;26418;50.070;8.436;2023-05-27T05:35:50;100901.81;;;13.63;52.43
40730;BME280;26418;50.070;8.436;2023-05-27T05:38:43;100910.19;;;13.66;52.28
40730;BME280;26418;50.070;8.436;2023-05-27T05:41:27;100909.78;;;13.73;52.30
40730;BME280;26418;50.070;8.436;2023-05-27T05:44:30;100917.19;;;13.87;52.19
40730;BME280;26418;50.070;8.436;2023-05-27T05:50:05;100919.66;;;14.02;50.74
40730;BME280;26418;50.070;8.436;2023-05-27T05:52:31;100913.19;;;13.98;51.23
40730;BME280;26418;50.070;8.436;2023-05-27T05:55:27;100915.84;;;14.03;51.14
40730;BME280;26418;50.070;8.436;2023-05-27T05:58:30;100918.66;;;14.12;51.14
40730;BME280;26418;50.070;8.436;2023-05-27T06:00:55;100908.59;;;14.12;51.22
40730;BME280;26418;50.070;8.436;2023-05-27T06:10:32;100925.25;;;14.39;50.62
40730;BME280;26418;50.070;8.436;2023-05-27T06:13:17;100924.13;;;14.40;50.27
40730;BME280;26418;50.070;8.436;2023-05-27T06:25:28;100909.13;;;14.56;50.07
40730;BME280;26418;50.070;8.436;2023-05-27T06:31:18;100920.34;;;14.69;49.85
40730;BME280;26418;50.070;8.436;2023-05-27T06:34:09;100917.31;;;14.70;49.82
40730;BME280;26418;50.070;8.436;2023-05-27T06:36:34;100918.31;;;14.74;50.02
40730;BME280;26418;50.070;8.436;2023-05-27T06:39:00;100906.50;;;14.79;50.10
40730;BME280;26418;50.070;8.436;2023-05-27T06:41:26;100902.38;;;14.82;49.99
40730;BME280;26418;50.070;8.436;2023-05-27T06:43:51;100916.09;;;14.76;49.92
40730;BME280;26418;50.070;8.436;2023-05-27T06:46:17;100913.50;;;14.71;49.96
40730;BME280;26418;50.070;8.436;2023-05-27T06:48:42;100905.00;;;14.73;50.50
40730;BME280;26418;50.070;8.436;2023-05-27T06:51:08;100897.03;;;14.90;50.65
40730;BME280;26418;50.070;8.436;2023-05-27T06:53:33;100906.16;;;15.08;50.09
40730;BME280;26418;50.070;8.436;2023-05-27T06:56:00;100903.72;;;15.21;49.09
40730;BME280;26418;50.070;8.436;2023-05-27T06:58:25;100883.34;;;15.18;48.60
40730;BME280;26418;50.070;8.436;2023-05-27T07:00:50;100891.75;;;15.31;48.11
40730;BME280;26418;50.070;8.436;2023-05-27T07:03:16;100888.31;;;15.39;48.12
40730;BME280;26418;50.070;8.436;2023-05-27T07:05:41;100897.97;;;15.45;48.01
40730;BME280;26418;50.070;8.436;2023-05-27T07:08:06;100883.03;;;15.43;48.23
40730;BME280;26418;50.070;8.436;2023-05-27T07:10:32;100901.56;;;15.54;48.07
40730;BME280;26418;50.070;8.436;2023-05-27T07:12:57;100883.72;;;15.48;47.78
40730;BME280;26418;50.070;8.436;2023-05-27T07:15:25;100894.38;;;15.59;47.66
40730;BME280;26418;50.070;8.436;2023-05-27T07:17:50;100897.03;;;15.50;47.87
40730;BME280;26418;50.070;8.436;2023-05-27T07:20:16;100893.19;;;15.51;48.42
40730;BME280;26418;50.070;8.436;2023-05-27T07:22:41;100879.63;;;15.60;48.59
40730;BME280;26418;50.070;8.436;2023-05-27T07:25:07;100888.00;;;15.86;48.11
40730;BME280;26418;50.070;8.436;2023-05-27T07:27:33;100886.94;;;15.96;47.67
40730;BME280;26418;50.070;8.436;2023-05-27T07:29:58;100891.78;;;16.08;47.32
40730;BME280;26418;50.070;8.436;2023-05-27T07:32:23;100887.16;;;16.08;47.26
40730;BME280;26418;50.070;8.436;2023-05-27T07:34:49;100875.31;;;16.22;47.62
40730;BME280;26418;50.070;8.436;2023-05-27T07:37:15;100879.72;;;16.31;46.84
40730;BME280;26418;50.070;8.436;2023-05-27T07:39:40;100867.84;;;16.36;46.36
40730;BME280;26418;50.070;8.436;2023-05-27T07:42:05;100878.13;;;16.39;46.45
40730;BME280;26418;50.070;8.436;2023-05-27T07:44:31;100875.41;;;16.39;46.45
40730;BME280;26418;50.070;8.436;2023-05-27T07:46:56;100876.84;;;16.37;46.75
40730;BME280;26418;50.070;8.436;2023-05-27T07:49:22;100871.38;;;16.37;46.32
40730;BME280;26418;50.070;8.436;2023-05-27T07:51:50;100873.47;;;16.40;46.71
40730;BME280;26418;50.070;8.436;2023-05-27T07:54:15;100860.47;;;16.37;46.79
40730;BME280;26418;50.070;8.436;2023-05-27T07:56:41;100861.78;;;16.48;46.79
40730;BME280;26418;50.070;8.436;2023-05-27T07:59:06;100853.75;;;16.60;46.72
40730;BME280;26418;50.070;8.436;2023-05-27T08:01:32;100867.28;;;16.65;46.80
40730;BME280;26418;50.070;8.436;2023-05-27T08:03:58;100867.94;;;16.80;46.39
40730;BME280;26418;50.070;8.436;2023-05-27T08:06:24;100858.13;;;16.88;46.04
40730;BME280;26418;50.070;8.436;2023-05-27T08:08:50;100854.34;;;16.97;45.93
40730;BME280;26418;50.070;8.436;2023-05-27T08:11:15;100858.53;;;17.21;46.33
40730;BME280;26418;50.070;8.436;2023-05-27T08:13:41;100851.75;;;17.45;45.57
40730;BME280;26418;50.070;8.436;2023-05-27T08:16:07;100852.56;;;17.46;45.41
40730;BME280;26418;50.070;8.436;2023-05-27T08:18:35;100859.28;;;17.66;45.19
40730;BME280;26418;50.070;8.436;2023-05-27T08:21:00;100852.94;;;17.91;44.85
40730;BME280;26418;50.070;8.436;2023-05-27T08:23:26;100830.69;;;18.02;44.89
40730;BME280;26418;50.070;8.436;2023-05-27T08:25:51;100840.28;;;18.47;44.52
40730;BME280;26418;50.070;8.436;2023-05-27T08:28:17;100841.78;;;18.65;43.71
40730;BME280;26418;50.070;8.436;2023-05-27T08:30:43;100838.13;;;18.61;42.91
40730;BME280;26418;50.070;8.436;2023-05-27T08:33:08;100825.44;;;18.48;42.76
40730;BME280;26418;50.070;8.436;2023-05-27T08:35:33;100829.16;;;18.52;42.89
40730;BME280;26418;50.070;8.436;2023-05-27T08:37:59;100821.72;;;18.52;43.40
40730;BME280;26418;50.070;8.436;2023-05-27T08:40:24;100806.63;;;18.67;43.49
40730;BME280;26418;50.070;8.436;2023-05-27T08:42:50;100804.31;;;18.99;43.25
40730;BME280;26418;50.070;8.436;2023-05-27T08:45:16;100813.66;;;19.20;42.43
40730;BME280;26418;50.070;8.436;2023-05-27T08:47:42;100809.13;;;19.36;42.45
40730;BME280;26418;50.070;8.436;2023-05-27T08:50:08;100805.06;;;19.42;42.48
40730;BME280;26418;50.070;8.436;2023-05-27T08:52:38;100804.41;;;19.70;41.37
40730;BME280;26418;50.070;8.436;2023-05-27T08:55:08;100815.06;;;19.84;41.28
40730;BME280;26418;50.070;8.436;2023-05-27T08:57:35;100809.47;;;19.80;41.76
40730;BME280;26418;50.070;8.436;2023-05-27T09:00:02;100802.25;;;19.76;41.98
40730;BME280;26418;50.070;8.436;2023-05-27T09:02:36;100806.06;;;19.96;41.54
40730;BME280;26418;50.070;8.436;2023-05-27T09:05:02;100798.53;;;20.18;41.51
40730;BME280;26418;50.070;8.436;2023-05-27T09:07:27;100797.38;;;20.31;40.18
40730;BME280;26418;50.070;8.436;2023-05-27T09:09:57;100801.25;;;20.42;40.59
40730;BME280;26418;50.070;8.436;2023-05-27T09:12:23;100797.47;;;20.35;40.28
40730;BME280;26418;50.070;8.436;2023-05-27T09:14:50;100790.78;;;20.48;40.58
40730;BME280;26418;50.070;8.436;2023-05-27T09:17:15;100788.97;;;20.52;40.99
40730;BME280;26418;50.070;8.436;2023-05-27T09:19:41;100783.44;;;20.77;40.06
40730;BME280;26418;50.070;8.436;2023-05-27T09:22:07;100786.84;;;21.15;39.26
40730;BME280;26418;50.070;8.436;2023-05-27T09:24:34;100781.09;;;21.36;39.89
40730;BME280;26418;50.070;8.436;2023-05-27T09:27:01;100781.81;;;21.61;38.30
40730;BME280;26418;50.070;8.436;2023-05-27T09:29:26;100775.72;;;21.56;38.07
40730;BME280;26418;50.070;8.436;2023-05-27T09:31:55;100774.06;;;21.67;38.33
40730;BME280;26418;50.070;8.436;2023-05-27T09:34:21;100765.69;;;21.95;37.73
40730;BME280;26418;50.070;8.436;2023-05-27T09:36:49;100766.28;;;22.21;37.61
40730;BME280;26418;50.070;8.436;2023-05-27T09:39:15;100778.25;;;22.28;37.41
40730;BME280;26418;50.070;8.436;2023-05-27T09:41:41;100769.03;;;22.56;36.31
40730;BME280;26418;50.070;8.436;2023-05-27T09:44:08;100770.06;;;22.68;36.19
40730;BME280;26418;50.070;8.436;2023-05-27T09:46:34;100765.25;;;22.65;36.73
40730;BME280;26418;50.070;8.436;2023-05-27T09:49:00;100761.31;;;22.46;37.37
40730;BME280;26418;50.070;8.436;2023-05-27T09:51:28;100764.47;;;22.64;36.81
40730;BME280;26418;50.070;8.436;2023-05-27T09:53:54;100763.47;;;22.72;36.67
40730;BME280;26418;50.070;8.436;2023-05-27T09:56:24;100765.47;;;22.95;36.25
40730;BME280;26418;50.070;8.436;2023-05-27T09:58:50;100738.41;;;23.20;35.75
40730;BME280;26418;50.070;8.436;2023-05-27T10:01:16;100739.94;;;23.41;35.23
40730;BME280;26418;50.070;8.436;2023-05-27T10:03:45;100738.75;;;23.42;35.19
40730;BME280;26418;50.070;8.436;2023-05-27T10:06:14;100732.69;;;23.56;35.67
40730;BME280;26418;50.070;8.436;2023-05-27T10:08:42;100740.06;;;23.98;35.54
40730;BME280;26418;50.070;8.436;2023-05-27T10:11:12;100732.66;;;23.79;34.22
40730;BME280;26418;50.070;8.436;2023-05-27T10:13:38;100718.50;;;23.58;34.84
40730;BME280;26418;50.070;8.436;2023-05-27T10:16:04;100731.81;;;23.52;35.27
40730;BME280;26418;50.070;8.436;2023-05-27T10:18:30;100732.91;;;23.47;35.08
40730;BME280;26418;50.070;8.436;2023-05-27T10:21:00;100738.97;;;23.80;35.52
40730;BME280;26418;50.070;8.436;2023-05-27T10:23:30;100731.66;;;24.18;33.87
40730;BME280;26418;50.070;8.436;2023-05-27T10:26:06;100726.03;;;24.41;34.09
40730;BME280;26418;50.070;8.436;2023-05-27T10:28:33;100720.66;;;24.22;33.73
40730;BME280;26418;50.070;8.436;2023-05-27T10:33:38;100705.63;;;24.84;33.88
40730;BME280;26418;50.070;8.436;2023-05-27T10:36:06;100718.47;;;25.06;33.33
40730;BME280;26418;50.070;8.436;2023-05-27T10:38:32;100704.91;;;24.90;32.74
40730;BME280;26418;50.070;8.436;2023-05-27T10:41:03;100716.25;;;25.23;33.96
40730;BME280;26418;50.070;8.436;2023-05-27T10:43:29;100705.44;;;25.48;32.30
40730;BME280;26418;50.070;8.436;2023-05-27T10:46:21;100706.38;;;25.67;32.36
40730;BME280;26418;50.070;8.436;2023-05-27T10:48:47;100699.72;;;25.79;32.10
40730;BME280;26418;50.070;8.436;2023-05-27T10:51:12;100706.44;;;25.78;32.13
40730;BME280;26418;50.070;8.436;2023-05-27T10:53:38;100694.84;;;25.61;32.04
40730;BME280;26418;50.070;8.436;2023-05-27T10:56:04;100686.44;;;25.47;32.29
40730;BME280;26418;50.070;8.436;2023-05-27T10:58:33;100689.72;;;25.63;32.06
40730;BME280;26418;50.070;8.436;2023-05-27T11:01:01;100689.94;;;25.99;31.29
40730;BME280;26418;50.070;8.436;2023-05-27T11:03:28;100691.00;;;26.54;30.98
40730;BME280;26418;50.070;8.436;2023-05-27T11:06:05;100679.22;;;26.82;29.99
40730;BME280;26418;50.070;8.436;2023-05-27T11:08:34;100677.22;;;26.87;29.41
40730;BME280;26418;50.070;8.436;2023-05-27T11:11:06;100681.09;;;26.53;30.28
40730;BME280;26418;50.070;8.436;2023-05-27T11:13:41;100673.56;;;26.57;30.03
40730;BME280;26418;50.070;8.436;2023-05-27T11:16:11;100676.44;;;26.79;29.82
40730;BME280;26418;50.070;8.436;2023-05-27T11:18:44;100674.44;;;26.87;29.48
40730;BME280;26418;50.070;8.436;2023-05-27T11:21:12;100670.88;;;26.86;29.79
40730;BME280;26418;50.070;8.436;2023-05-27T11:23:46;100662.16;;;26.88;29.35
40730;BME280;26418;50.070;8.436;2023-05-27T11:31:13;100642.75;;;27.17;29.39
40730;BME280;26418;50.070;8.436;2023-05-27T11:33:44;100643.16;;;27.44;28.69
40730;BME280;26418;50.070;8.436;2023-05-27T11:36:14;100631.66;;;27.13;28.91
40730;BME280;26418;50.070;8.436;2023-05-27T11:38:54;100630.47;;;27.18;27.78
40730;BME280;26418;50.070;8.436;2023-05-27T11:41:22;100624.13;;;26.95;28.60
40730;BME280;26418;50.070;8.436;2023-05-27T11:43:54;100620.56;;;26.98;29.56
40730;BME280;26418;50.070;8.436;2023-05-27T11:46:20;100626.47;;;27.08;29.18
40730;BME280;26418;50.070;8.436;2023-05-27T11:48:46;100620.53;;;27.13;28.90
40730;BME280;26418;50.070;8.436;2023-05-27T11:51:12;100629.25;;;27.33;29.00
40730;BME280;26418;50.070;8.436;2023-05-27T11:53:44;100618.13;;;27.37;29.29
40730;BME280;26418;50.070;8.436;2023-05-27T11:56:10;100617.34;;;27.51;28.74
40730;BME280;26418;50.070;8.436;2023-05-27T11:58:35;100606.25;;;27.25;28.68
40730;BME280;26418;50.070;8.436;2023-05-27T12:01:03;100611.00;;;27.61;28.72
40730;BME280;26418;50.070;8.436;2023-05-27T12:03:29;100609.34;;;27.78;26.97
40730;BME280;26418;50.070;8.436;2023-05-27T12:05:55;100604.06;;;28.09;26.59
40730;BME280;26418;50.070;8.436;2023-05-27T12:08:20;100612.91;;;27.79;26.40
40730;BME280;26418;50.070;8.436;2023-05-27T12:10:46;100605.78;;;27.74;27.26
40730;BME280;26418;50.070;8.436;2023-05-27T12:13:15;100597.81;;;27.80;27.19
40730;BME280;26418;50.070;8.436;2023-05-27T12:15:41;100589.78;;;27.96;26.54
40730;BME280;26418;50.070;8.436;2023-05-27T12:18:06;100592.81;;;28.34;27.08
40730;BME280;26418;50.070;8.436;2023-05-27T12:20:32;100576.56;;;28.26;26.45
40730;BME280;26418;50.070;8.436;2023-05-27T12:22:58;100587.25;;;28.34;26.17
40730;BME280;26418;50.070;8.436;2023-05-27T12:25:24;100577.78;;;28.24;26.43
40730;BME280;26418;50.070;8.436;2023-05-27T12:27:49;100575.03;;;28.14;26.83
40730;BME280;26418;50.070;8.436;2023-05-27T12:30:15;100569.91;;;28.08;27.15
40730;BME280;26418;50.070;8.436;2023-05-27T12:32:41;100571.78;;;28.30;26.69
40730;BME280;26418;50.070;8.436;2023-05-27T12:35:08;100560.66;;;28.30;27.32
40730;BME280;26418;50.070;8.436;2023-05-27T12:37:33;100551.03;;;28.42;26.13
40730;BME280;26418;50.070;8.436;2023-05-27T12:39:59;100556.56;;;28.49;26.23
40730;BME280;26418;50.070;8.436;2023-05-27T12:42:24;100554.00;;;28.16;26.59
40730;BME280;26418;50.070;8.436;2023-05-27T12:44:50;100546.38;;;28.24;26.42
40730;BME280;26418;50.070;8.436;2023-05-27T12:47:16;100545.81;;;28.51;26.80
40730;BME280;26418;50.070;8.436;2023-05-27T12:49:41;100546.84;;;28.71;26.74
40730;BME280;26418;50.070;8.436;2023-05-27T12:52:08;100549.91;;;28.92;25.84
40730;BME280;26418;50.070;8.436;2023-05-27T12:55:06;100543.19;;;28.82;25.31
40730;BME280;26418;50.070;8.436;2023-05-27T12:57:48;100547.28;;;28.03;26.49
40730;BME280;26418;50.070;8.436;2023-05-27T13:00:15;100520.94;;;27.29;27.00
40730;BME280;26418;50.070;8.436;2023-05-27T13:02:42;100531.31;;;27.04;27.67
40730;BME280;26418;50.070;8.436;2023-05-27T13:05:11;100531.69;;;26.59;27.80
40730;BME280;26418;50.070;8.436;2023-05-27T13:07:37;100517.44;;;26.67;27.96
40730;BME280;26418;50.070;8.436;2023-05-27T13:10:11;100518.22;;;26.46;28.23
40730;BME280;26418;50.070;8.436;2023-05-27T13:12:39;100524.94;;;26.38;28.50
40730;BME280;26418;50.070;8.436;2023-05-27T13:15:05;100511.03;;;26.13;28.96
40730;BME280;26418;50.070;8.436;2023-05-27T13:17:33;100514.22;;;26.15;28.88
40730;BME280;26418;50.070;8.436;2023-05-27T13:19:59;100503.81;;;25.86;28.11
40730;BME280;26418;50.070;8.436;2023-05-27T13:22:24;100517.66;;;25.86;28.77
40730;BME280;26418;50.070;8.436;2023-05-27T13:24:51;100525.22;;;25.93;28.15